Time;durP1;ratioP1;P1;durP2;ratioP2;P2;SDS_P1;SDS_P2;PMS_P1;PMS_P2;Temp;Humidity;BMP_temperature;BMP_pressure;BME280_temperature;BME280_humidity;BME280_pressure;Samples;Min_cycle;Max_cycle;Signal;HPM_P1;HPM_P2
2024/02/01 00:00:18;;;;;;;7.87;6.30;;;;;;;4.17;78.51;101008.28;5010644;28;20221;-55
2024/02/01 00:02:46;;;;;;;8.23;5.60;;;;;;;4.14;78.81;101000.53;5007757;28;20221;-54
2024/02/01 00:05:14;;;;;;;8.23;5.73;;;;;;;4.18;79.11;101003.22;5016607;28;20705;-48
2024/02/01 00:07:43;;;;;;;9.03;6.53;;;;;;;4.18;78.76;100993.00;5005589;28;20611;-49
2024/02/01 00:10:11;;;;;;;8.13;5.70;;;;;;;4.20;78.79;100986.28;5010580;28;20207;-62
2024/02/01 00:12:39;;;;;;;8.07;6.43;;;;;;;4.20;78.74;100990.50;5008230;28;20204;-51
2024/02/01 00:15:10;;;;;;;10.30;6.80;;;;;;;4.23;78.83;100985.47;5012142;28;20592;-51
2024/02/01 00:17:38;;;;;;;11.43;7.83;;;;;;;4.24;78.95;100971.94;5005405;28;20239;-49
2024/02/01 00:20:07;;;;;;;10.70;7.47;;;;;;;4.28;78.64;100968.66;5004930;28;20214;-49
2024/02/01 00:22:35;;;;;;;13.87;8.30;;;;;;;4.31;78.99;100972.16;5008641;28;20223;-53
2024/02/01 00:25:04;;;;;;;10.83;7.53;;;;;;;4.34;78.36;100973.91;5011392;28;20298;-49
2024/02/01 00:27:31;;;;;;;11.43;7.23;;;;;;;4.32;78.52;100961.13;5013514;28;20714;-49
2024/02/01 00:30:00;;;;;;;9.03;7.13;;;;;;;4.32;78.11;100956.00;5006649;28;20231;-49
2024/02/01 00:32:31;;;;;;;10.00;6.30;;;;;;;4.35;78.24;100952.69;5012586;28;20681;-50
2024/02/01 00:35:00;;;;;;;9.47;6.60;;;;;;;4.36;77.93;100941.66;5013214;28;20572;-57
2024/02/01 00:37:27;;;;;;;9.77;7.10;;;;;;;4.35;77.79;100925.50;5014347;28;20277;-49
2024/02/01 00:39:55;;;;;;;10.87;7.53;;;;;;;4.40;77.28;100922.19;5001762;28;20531;-48
2024/02/01 00:42:23;;;;;;;10.80;7.40;;;;;;;4.36;77.45;100924.66;5009651;28;20322;-49
2024/02/01 00:44:51;;;;;;;10.07;6.90;;;;;;;4.39;77.19;100916.22;5010322;28;20199;-49
2024/02/01 00:47:19;;;;;;;10.03;6.23;;;;;;;4.40;77.39;100909.44;5008841;28;20711;-53
2024/02/01 00:49:48;;;;;;;8.50;6.20;;;;;;;4.42;77.23;100906.13;5012540;28;20210;-49
2024/02/01 00:52:16;;;;;;;9.47;6.00;;;;;;;4.45;77.34;100895.09;5009701;28;20215;-57
2024/02/01 00:54:44;;;;;;;8.73;6.13;;;;;;;4.46;77.47;100884.09;5008292;28;20680;-47
2024/02/01 00:57:12;;;;;;;9.73;6.73;;;;;;;4.52;77.58;100886.78;5007541;28;20542;-51
2024/02/01 00:59:41;;;;;;;9.30;6.53;;;;;;;4.47;77.40;100866.25;5009580;28;20207;-49
2024/02/01 01:02:09;;;;;;;8.07;5.70;;;;;;;4.54;76.90;100869.84;5006541;28;20219;-48
2024/02/01 01:04:37;;;;;;;8.13;5.43;;;;;;;4.55;76.78;100881.78;5017683;28;20524;-50
2024/02/01 01:07:07;;;;;;;7.00;5.33;;;;;;;4.54;76.34;100857.09;5003990;28;20209;-48
2024/02/01 01:09:35;;;;;;;8.03;5.63;;;;;;;4.53;76.65;100855.38;5005167;28;20195;-53
2024/02/01 01:12:03;;;;;;;8.10;6.10;;;;;;;4.51;76.77;100841.69;5011373;28;20721;-55
2024/02/01 01:14:32;;;;;;;8.83;5.87;;;;;;;4.51;77.04;100828.94;5014509;28;20210;-52
2024/02/01 01:17:00;;;;;;;7.40;5.20;;;;;;;4.52;76.75;100826.41;5008932;28;20242;-52
2024/02/01 01:19:27;;;;;;;9.43;6.40;;;;;;;4.48;77.26;100813.53;5005966;28;20211;-50
2024/02/01 01:21:58;;;;;;;8.57;5.73;;;;;;;4.47;77.27;100817.78;5008634;28;20219;-52
2024/02/01 01:24:27;;;;;;;7.73;5.67;;;;;;;4.45;77.16;100809.22;5003059;28;20221;-51
2024/02/01 01:26:55;;;;;;;9.20;6.63;;;;;;;4.46;76.79;100815.19;5006525;28;20665;-51
2024/02/01 01:29:23;;;;;;;10.67;6.70;;;;;;;4.45;77.44;100818.56;5004138;28;20585;-49
2024/02/01 01:31:51;;;;;;;9.77;6.87;;;;;;;4.43;77.45;100815.13;5010113;28;20710;-53
2024/02/01 01:34:19;;;;;;;9.00;6.57;;;;;;;4.44;76.90;100815.16;5010447;28;20202;-54
2024/02/01 01:36:47;;;;;;;11.97;7.10;;;;;;;4.46;76.39;100795.66;5010305;28;20314;-49
2024/02/01 01:39:15;;;;;;;11.10;7.33;;;;;;;4.44;76.65;100796.41;5015920;28;20646;-51
2024/02/01 01:41:45;;;;;;;13.50;8.80;;;;;;;4.41;76.61;100791.25;5020999;28;20220;-52
2024/02/01 01:44:13;;;;;;;10.47;7.97;;;;;;;4.42;76.85;100788.75;5005067;28;20337;-55
2024/02/01 01:46:41;;;;;;;13.27;8.53;;;;;;;4.45;76.59;100782.84;5011961;28;20223;-57
2024/02/01 01:49:11;;;;;;;11.00;8.13;;;;;;;4.44;76.98;100786.22;5008910;28;20242;-53
2024/02/01 01:51:40;;;;;;;12.10;8.67;;;;;;;4.38;76.92;100784.34;5017243;28;20549;-51
2024/02/01 01:54:09;;;;;;;12.03;8.60;;;;;;;4.39;76.89;100788.66;5008518;28;20213;-51
2024/02/01 01:56:38;;;;;;;12.50;8.60;;;;;;;4.40;76.28;100780.16;5012917;28;20214;-52
2024/02/01 01:59:08;;;;;;;11.63;8.17;;;;;;;4.43;76.31;100779.41;5013431;28;20299;-53
2024/02/01 02:01:38;;;;;;;12.37;8.63;;;;;;;4.42;76.07;100770.00;5009551;28;20203;-49
2024/02/01 02:04:07;;;;;;;13.40;8.80;;;;;;;4.33;76.15;100768.94;5009600;28;20237;-49
2024/02/01 02:06:35;;;;;;;12.23;8.10;;;;;;;4.44;76.08;100791.31;4999070;28;20207;-51
2024/02/01 02:09:03;;;;;;;12.90;8.40;;;;;;;4.40;75.92;100787.81;5011897;28;20191;-50
2024/02/01 02:11:32;;;;;;;10.97;8.87;;;;;;;4.40;76.27;100776.75;5005822;28;20215;-52
2024/02/01 02:14:00;;;;;;;12.53;8.47;;;;;;;4.36;76.88;100771.56;5002492;28;20216;-50
2024/02/01 02:16:29;;;;;;;12.77;8.23;;;;;;;4.38;76.48;100770.75;5010482;28;20239;-54
2024/02/01 02:19:00;;;;;;;12.60;8.53;;;;;;;4.35;76.82;100767.31;5009345;28;20729;-54
2024/02/01 02:21:30;;;;;;;14.27;8.63;;;;;;;4.41;76.56;100764.03;5012943;28;20214;-52
2024/02/01 02:24:00;;;;;;;12.27;8.90;;;;;;;4.40;75.77;100753.81;5019208;28;20307;-54
2024/02/01 02:26:28;;;;;;;11.83;8.03;;;;;;;4.40;75.94;100764.00;5004169;28;20204;-57
2024/02/01 02:28:55;;;;;;;11.13;8.03;;;;;;;4.40;75.91;100751.25;5006535;28;20211;-59
2024/02/01 02:31:24;;;;;;;12.47;8.17;;;;;;;4.41;76.13;100755.53;5017566;28;20606;-49
2024/02/01 02:33:52;;;;;;;12.03;8.43;;;;;;;4.42;76.36;100747.03;5019966;28;20353;-52
2024/02/01 02:36:20;;;;;;;13.27;8.90;;;;;;;4.44;75.62;100747.94;5012830;28;20199;-50
2024/02/01 02:38:51;;;;;;;12.13;8.77;;;;;;;4.42;76.15;100739.38;5015717;28;20294;-51
2024/02/01 02:41:20;;;;;;;12.67;9.57;;;;;;;4.39;76.20;100741.88;5012890;28;20285;-52
2024/02/01 02:43:48;;;;;;;13.10;9.50;;;;;;;4.39;76.27;100722.31;5012231;28;20242;-52
2024/02/01 02:46:16;;;;;;;11.67;8.83;;;;;;;4.40;76.78;100728.28;5011432;28;20658;-53
2024/02/01 02:48:44;;;;;;;11.03;8.63;;;;;;;4.42;76.41;100716.41;5002951;28;20350;-54
2024/02/01 02:51:12;;;;;;;13.77;8.73;;;;;;;4.42;76.22;100717.31;5015087;28;20203;-52
2024/02/01 02:53:40;;;;;;;13.00;8.83;;;;;;;4.45;76.33;100712.25;5019147;28;20195;-54
2024/02/01 02:56:08;;;;;;;13.53;8.93;;;;;;;4.44;76.26;100702.88;5006495;28;20724;-50
2024/02/01 02:58:38;;;;;;;12.93;8.60;;;;;;;4.43;76.39;100710.50;5008507;28;20668;-50
2024/02/01 03:01:08;;;;;;;15.03;9.67;;;;;;;4.34;76.56;100688.16;5013593;28;20302;-50
2024/02/01 03:03:40;;;;;;;13.10;9.23;;;;;;;4.39;77.00;100684.06;5015093;28;20222;-50
2024/02/01 03:06:08;;;;;;;14.60;9.77;;;;;;;4.39;76.87;100675.53;5015889;28;20290;-48
2024/02/01 03:08:39;;;;;;;14.27;10.03;;;;;;;4.39;76.42;100680.66;5010993;28;20290;-51
2024/02/01 03:11:10;;;;;;;13.63;9.57;;;;;;;4.37;76.45;100675.50;5009746;28;20585;-53
2024/02/01 03:13:40;;;;;;;14.13;10.50;;;;;;;4.35;76.66;100660.16;5023047;28;20291;-54
2024/02/01 03:16:16;;;;;;;13.70;9.83;;;;;;;4.34;76.59;100672.84;5005775;28;20235;-52
2024/02/01 03:18:45;;;;;;;14.13;9.50;;;;;;;4.34;76.06;100660.09;5013586;28;20599;-51
2024/02/01 03:21:14;;;;;;;13.87;10.13;;;;;;;4.25;76.00;100640.34;5016393;28;20206;-50
2024/02/01 03:23:47;;;;;;;14.33;10.13;;;;;;;4.24;76.05;100647.97;5008758;28;20212;-59
2024/02/01 03:26:17;;;;;;;13.57;9.70;;;;;;;4.22;75.76;100645.38;5009925;28;20686;-52
2024/02/01 03:28:48;;;;;;;12.83;9.27;;;;;;;4.20;75.95;100643.59;5002516;28;20216;-48
2024/02/01 03:31:16;;;;;;;15.43;10.63;;;;;;;4.20;75.84;100630.84;5009299;28;20210;-54
2024/02/01 03:33:47;;;;;;;12.67;10.13;;;;;;;4.19;76.09;100641.91;5016380;28;20253;-50
2024/02/01 03:36:19;;;;;;;12.27;9.60;;;;;;;4.18;75.70;100630.84;5016867;28;20210;-50
2024/02/01 03:38:47;;;;;;;12.53;10.10;;;;;;;4.16;76.08;100641.81;5018074;28;20215;-52
2024/02/01 03:41:15;;;;;;;13.23;9.50;;;;;;;4.18;75.75;100635.06;5013230;28;20658;-52
2024/02/01 03:43:43;;;;;;;13.80;9.57;;;;;;;4.19;75.98;100627.44;5009124;28;20219;-50
2024/02/01 03:46:14;;;;;;;13.90;8.67;;;;;;;4.19;76.04;100627.44;5008606;28;20640;-51
2024/02/01 03:48:42;;;;;;;14.13;8.83;;;;;;;4.19;75.83;100622.34;5005480;28;20203;-50
2024/02/01 03:51:11;;;;;;;13.77;10.37;;;;;;;4.23;75.83;100634.34;5006406;28;20199;-52
2024/02/01 03:53:39;;;;;;;14.47;9.83;;;;;;;4.24;75.63;100618.22;5001480;28;20219;-49
2024/02/01 03:56:07;;;;;;;16.20;9.47;;;;;;;4.26;75.09;100631.88;5003238;28;20228;-48
2024/02/01 03:58:35;;;;;;;13.53;9.67;;;;;;;4.23;75.94;100613.94;5000151;28;20231;-48
2024/02/01 04:01:03;;;;;;;13.93;9.87;;;;;;;4.22;75.77;100622.41;5010948;28;20214;-50
2024/02/01 04:03:32;;;;;;;12.90;8.83;;;;;;;4.24;75.09;100608.03;5012488;28;20258;-52
2024/02/01 04:06:03;;;;;;;14.93;9.80;;;;;;;4.23;75.52;100608.84;5006408;28;20231;-49
2024/02/01 04:08:31;;;;;;;14.27;9.50;;;;;;;4.19;75.87;100599.41;5011822;28;20258;-54
2024/02/01 04:10:59;;;;;;;13.37;9.63;;;;;;;4.19;75.52;100584.09;5007917;28;20200;-49
2024/02/01 04:13:26;;;;;;;14.33;9.57;;;;;;;4.23;75.61;100577.38;5008050;28;20226;-50
2024/02/01 04:15:55;;;;;;;13.43;9.57;;;;;;;4.22;75.51;100576.50;5008725;28;20207;-51
2024/02/01 04:18:23;;;;;;;16.13;9.93;;;;;;;4.19;75.46;100571.34;5009775;28;20269;-49
2024/02/01 04:20:52;;;;;;;13.63;10.20;;;;;;;4.21;75.46;100569.69;5004607;28;20567;-50
2024/02/01 04:23:21;;;;;;;13.83;9.53;;;;;;;4.20;75.40;100578.19;5006903;28;20239;-58
2024/02/01 04:25:48;;;;;;;12.97;9.10;;;;;;;4.17;75.71;100562.81;5005448;28;20245;-54
2024/02/01 04:28:18;;;;;;;14.37;9.97;;;;;;;4.18;75.70;100567.06;4999668;28;20255;-64
2024/02/01 04:30:50;;;;;;;14.00;10.40;;;;;;;4.16;75.34;100558.53;5007889;28;20207;-63
2024/02/01 04:33:19;;;;;;;13.60;9.47;;;;;;;4.13;75.76;100550.81;5016098;28;20273;-53
2024/02/01 04:35:47;;;;;;;13.33;10.93;;;;;;;4.08;76.01;100548.13;5005881;28;20608;-53
2024/02/01 04:38:16;;;;;;;16.23;9.73;;;;;;;4.01;76.26;100537.75;5004872;28;20250;-53
2024/02/01 04:40:44;;;;;;;14.70;9.63;;;;;;;4.05;76.50;100534.47;5009651;28;20234;-55
2024/02/01 04:43:12;;;;;;;15.67;10.67;;;;;;;4.05;76.11;100526.81;5009785;28;20615;-52
2024/02/01 04:45:40;;;;;;;16.83;11.00;;;;;;;4.08;75.71;100544.72;5010782;28;20211;-58
2024/02/01 04:48:10;;;;;;;16.10;11.53;;;;;;;4.10;75.66;100525.25;5010221;28;20716;-54
2024/02/01 04:50:39;;;;;;;17.33;10.87;;;;;;;4.08;75.72;100524.34;5010240;28;20347;-52
2024/02/01 04:53:07;;;;;;;18.27;11.90;;;;;;;4.12;76.16;100513.38;5007049;28;20215;-54
2024/02/01 04:55:37;;;;;;;17.70;11.30;;;;;;;4.14;75.82;100511.72;5011334;28;20211;-53
2024/02/01 04:58:07;;;;;;;16.97;11.83;;;;;;;4.14;75.68;100501.53;5003540;28;20215;-59
2024/02/01 05:00:34;;;;;;;20.73;13.37;;;;;;;4.11;75.57;100511.66;5017215;28;20294;-53
2024/02/01 05:03:02;;;;;;;16.73;12.23;;;;;;;4.09;76.16;100509.09;5000619;28;20254;-53
2024/02/01 05:05:31;;;;;;;16.03;11.00;;;;;;;4.11;75.65;100496.34;5010797;28;20677;-55
2024/02/01 05:07:59;;;;;;;17.83;12.27;;;;;;;4.09;75.37;100483.59;5011494;28;20678;-56
2024/02/01 05:10:26;;;;;;;16.47;11.83;;;;;;;4.09;75.51;100478.50;5010887;28;20217;-53
2024/02/01 05:12:56;;;;;;;16.70;12.00;;;;;;;4.08;75.50;100491.19;5008784;28;20237;-55
2024/02/01 05:15:23;;;;;;;21.77;13.67;;;;;;;4.07;75.49;100486.91;5011275;28;20199;-56
2024/02/01 05:17:51;;;;;;;20.37;13.20;;;;;;;4.08;75.29;100501.38;5011176;28;20246;-53
2024/02/01 05:20:20;;;;;;;18.40;13.10;;;;;;;4.08;75.28;100470.78;5004519;28;20226;-51
2024/02/01 05:22:47;;;;;;;19.30;13.77;;;;;;;4.05;75.21;100470.72;5008921;28;20623;-55
2024/02/01 05:25:15;;;;;;;22.20;15.47;;;;;;;4.00;75.22;100474.88;5010969;28;20228;-60
2024/02/01 05:27:50;;;;;;;20.70;12.90;;;;;;;4.01;75.53;100471.47;5009866;28;20207;-54
2024/02/01 05:30:22;;;;;;;22.80;13.83;;;;;;;4.02;75.52;100437.53;5006859;28;20595;-55
2024/02/01 05:32:52;;;;;;;22.63;13.87;;;;;;;4.06;75.64;100467.34;5015837;28;20253;-52
2024/02/01 05:35:28;;;;;;;18.77;12.53;;;;;;;4.07;75.42;100469.06;5015843;28;20207;-55
2024/02/01 05:37:57;;;;;;;22.93;15.53;;;;;;;4.02;75.23;100455.38;5010820;28;20242;-59
2024/02/01 05:40:25;;;;;;;20.90;13.77;;;;;;;4.01;75.42;100456.19;5015157;28;20215;-58
2024/02/01 05:42:53;;;;;;;21.87;14.07;;;;;;;4.05;74.86;100455.41;5013701;28;20210;-60
2024/02/01 05:45:27;;;;;;;22.17;14.57;;;;;;;4.00;75.25;100452.78;5012917;28;20628;-55
2024/02/01 05:47:57;;;;;;;21.13;14.20;;;;;;;4.00;75.42;100460.41;5010663;28;20771;-53
2024/02/01 05:50:25;;;;;;;23.53;13.97;;;;;;;3.99;75.31;100445.09;5012015;28;20261;-49
2024/02/01 05:52:53;;;;;;;22.70;14.17;;;;;;;4.00;75.07;100452.78;5009918;28;20199;-49
2024/02/01 05:55:21;;;;;;;24.60;14.63;;;;;;;4.01;75.36;100469.78;5015353;28;20650;-51
2024/02/01 05:57:49;;;;;;;23.30;16.33;;;;;;;4.00;75.16;100468.06;5014101;28;20214;-48
2024/02/01 06:00:21;;;;;;;24.47;17.03;;;;;;;3.90;75.86;100461.03;5013707;28;20238;-48
2024/02/01 06:02:53;;;;;;;23.13;15.87;;;;;;;3.85;76.08;100458.41;5004290;28;20211;-48
2024/02/01 06:05:21;;;;;;;23.17;16.40;;;;;;;3.81;75.62;100460.84;5012225;28;20227;-50
2024/02/01 06:07:49;;;;;;;21.60;14.77;;;;;;;3.76;76.38;100440.38;5010333;28;20294;-49
2024/02/01 06:10:17;;;;;;;20.67;14.83;;;;;;;3.74;76.28;100439.47;5012072;28;20659;-53
2024/02/01 06:12:45;;;;;;;24.10;15.20;;;;;;;3.75;76.83;100440.31;5012096;28;20210;-54
2024/02/01 06:15:13;;;;;;;21.77;14.47;;;;;;;3.74;76.86;100447.09;5012905;28;20202;-52
2024/02/01 06:17:41;;;;;;;24.40;15.63;;;;;;;3.68;77.17;100454.59;5009759;28;20246;-52
2024/02/01 06:20:12;;;;;;;25.93;16.13;;;;;;;3.69;77.33;100456.34;5012127;28;20612;-50
2024/02/01 06:22:40;;;;;;;24.50;16.33;;;;;;;3.71;77.27;100462.31;5017431;28;20253;-55
2024/02/01 06:25:11;;;;;;;27.77;17.63;;;;;;;3.68;76.88;100458.84;5006087;28;20215;-50
2024/02/01 06:27:40;;;;;;;26.43;17.70;;;;;;;3.67;77.50;100452.88;5005604;28;20298;-54
2024/02/01 06:30:10;;;;;;;27.20;17.90;;;;;;;3.64;77.31;100463.00;5012930;28;20637;-56
2024/02/01 06:32:39;;;;;;;24.00;17.13;;;;;;;3.60;77.34;100449.34;5013421;28;20716;-53
2024/02/01 06:35:16;;;;;;;29.27;17.17;;;;;;;3.58;77.75;100447.59;5017882;28;20282;-53
2024/02/01 06:37:52;;;;;;;25.47;16.37;;;;;;;3.61;78.44;100445.97;5010827;28;20207;-52
2024/02/01 06:40:47;;;;;;;27.77;17.03;;;;;;;3.60;78.20;100441.69;5009070;28;20261;-55
2024/02/01 06:43:27;;;;;;;27.80;17.53;;;;;;;3.54;78.75;100436.47;5003245;28;20666;-51
2024/02/01 06:46:01;;;;;;;28.30;18.80;;;;;;;3.55;78.55;100439.88;5010163;28;20238;-58
2024/02/01 06:48:41;;;;;;;27.03;17.90;;;;;;;3.54;78.62;100435.63;5004472;28;20217;-52
2024/02/01 06:51:21;;;;;;;28.03;17.67;;;;;;;3.56;78.86;100439.03;5012029;28;20286;-58
2024/02/01 06:53:56;;;;;;;24.60;15.67;;;;;;;3.58;78.87;100432.31;5001389;28;21004;-58
2024/02/01 06:56:48;;;;;;;27.87;17.73;;;;;;;3.59;78.71;100439.13;5021322;28;20230;-53
2024/02/01 06:59:31;;;;;;;25.43;17.50;;;;;;;3.59;78.35;100439.97;5004242;28;20682;-57
2024/02/01 07:02:06;;;;;;;29.00;18.00;;;;;;;3.58;79.19;100437.41;5008302;28;20207;-50
2024/02/01 07:04:49;;;;;;;26.67;17.90;;;;;;;3.58;79.38;100433.16;5015422;28;20739;-52
2024/02/01 07:07:18;;;;;;;28.60;18.30;;;;;;;3.53;79.26;100434.72;5004711;28;20209;-54
2024/02/01 07:09:57;;;;;;;27.43;18.50;;;;;;;3.52;79.65;100438.13;5012902;28;20235;-49
2024/02/01 07:12:39;;;;;;;26.53;17.13;;;;;;;3.48;79.51;100428.69;5004757;28;20654;-51
2024/02/01 07:15:30;;;;;;;29.60;18.63;;;;;;;3.47;79.94;100428.66;5011426;28;20682;-53
2024/02/01 07:18:02;;;;;;;30.83;17.93;;;;;;;3.49;79.79;100416.78;5006299;28;20243;-51
2024/02/01 07:20:46;;;;;;;28.07;17.77;;;;;;;3.49;79.88;100427.84;5007277;28;20245;-53
2024/02/01 07:26:02;;;;;;;25.87;15.73;;;;;;;3.51;79.75;100420.25;5012644;28;20219;-52
2024/02/01 07:59:26;;;;;;;24.27;16.20;;;;;;;3.68;80.22;100406.19;5010150;28;20210;-49
2024/02/01 08:02:13;;;;;;;26.47;17.43;;;;;;;3.63;80.76;100401.00;5007039;28;20307;-49
2024/02/01 08:07:48;;;;;;;24.60;15.60;;;;;;;3.61;81.99;100406.91;5004386;28;20282;-50
2024/02/01 08:10:18;;;;;;;24.50;15.37;;;;;;;3.62;82.14;100404.38;5001557;28;20656;-55
2024/02/01 08:12:48;;;;;;;27.27;16.27;;;;;;;3.61;83.14;100412.00;5005397;28;20211;-50
2024/02/01 08:15:19;;;;;;;23.00;16.23;;;;;;;3.58;83.59;100417.03;5010289;28;20214;-48
2024/02/01 08:17:48;;;;;;;22.13;14.47;;;;;;;3.56;83.64;100411.03;5004425;28;20927;-49
2024/02/01 08:20:17;;;;;;;21.87;14.47;;;;;;;3.56;84.06;100426.31;5017640;28;20223;-51
2024/02/01 08:22:45;;;;;;;27.03;17.13;;;;;;;3.51;85.25;100418.56;5012084;28;20214;-53
2024/02/01 08:25:14;;;;;;;21.53;14.83;;;;;;;3.51;85.47;100420.25;5007804;28;20224;-50
2024/02/01 08:27:49;;;;;;;23.47;15.00;;;;;;;3.52;85.46;100430.47;5012153;28;20714;-48
2024/02/01 08:30:19;;;;;;;21.57;15.37;;;;;;;3.53;86.39;100428.78;5011051;28;20206;-53
2024/02/01 08:32:48;;;;;;;21.87;14.73;;;;;;;3.50;86.18;100429.59;5016973;28;20203;-48
2024/02/01 08:35:16;;;;;;;21.23;14.17;;;;;;;3.50;86.69;100416.84;5012341;28;20257;-48
2024/02/01 08:37:45;;;;;;;21.67;14.37;;;;;;;3.55;87.04;100427.13;5020913;28;20210;-51
2024/02/01 08:40:17;;;;;;;20.27;13.83;;;;;;;3.57;86.70;100435.66;5022782;28;20581;-50
2024/02/01 08:42:45;;;;;;;20.47;13.97;;;;;;;3.57;86.45;100428.91;4997986;28;20259;-49
2024/02/01 08:45:14;;;;;;;24.40;14.30;;;;;;;3.55;87.83;100427.13;5011784;28;20204;-50
2024/02/01 08:47:44;;;;;;;20.10;13.73;;;;;;;3.50;87.80;100423.59;5005608;28;20308;-52
2024/02/01 08:50:13;;;;;;;22.07;14.60;;;;;;;3.51;88.08;100415.16;5004825;28;20214;-50
2024/02/01 08:52:45;;;;;;;20.53;14.27;;;;;;;3.50;88.29;100426.16;5004050;28;20227;-51
2024/02/01 08:55:15;;;;;;;18.97;13.97;;;;;;;3.45;88.96;100417.56;5013110;28;20199;-47
2024/02/01 08:57:44;;;;;;;20.57;13.23;;;;;;;3.46;88.91;100422.72;5006994;28;20536;-52
2024/02/01 09:00:29;;;;;;;20.30;13.07;;;;;;;3.42;89.33;100427.66;5011221;28;20241;-52
2024/02/01 09:03:06;;;;;;;19.33;13.53;;;;;;;3.43;90.21;100432.81;5008015;28;20207;-52
2024/02/01 09:05:36;;;;;;;20.90;15.00;;;;;;;3.43;89.88;100427.72;5008978;28;20341;-49
2024/02/01 09:08:06;;;;;;;22.43;14.10;;;;;;;3.42;90.05;100414.94;5008743;28;20589;-50
2024/02/01 09:10:34;;;;;;;16.97;12.13;;;;;;;3.44;90.38;100416.69;5007782;28;20200;-49
2024/02/01 09:13:03;;;;;;;20.90;13.57;;;;;;;3.48;90.53;100417.63;5009184;28;20298;-53
2024/02/01 09:15:32;;;;;;;21.27;13.07;;;;;;;3.51;89.93;100430.44;5010535;28;20199;-49
2024/02/01 09:18:03;;;;;;;16.93;13.13;;;;;;;3.47;90.19;100439.69;5010246;28;20322;-49
2024/02/01 09:20:32;;;;;;;18.77;12.47;;;;;;;3.45;91.37;100440.47;5009554;28;20317;-52
2024/02/01 09:23:00;;;;;;;19.50;12.63;;;;;;;3.45;91.52;100443.03;5010894;28;20203;-50
2024/02/01 09:25:28;;;;;;;23.13;14.87;;;;;;;3.47;91.79;100441.41;5011173;28;20631;-53
2024/02/01 09:27:57;;;;;;;16.53;11.63;;;;;;;3.46;91.57;100432.00;5009904;28;20214;-60
2024/02/01 09:30:28;;;;;;;15.13;10.87;;;;;;;3.46;91.67;100426.91;5012531;28;20673;-50
2024/02/01 09:32:56;;;;;;;15.50;11.17;;;;;;;3.43;91.65;100429.41;5014904;28;20203;-53
2024/02/01 09:35:27;;;;;;;14.47;10.23;;;;;;;3.47;91.58;100432.06;5003818;28;20203;-51
2024/02/01 09:37:55;;;;;;;16.03;10.23;;;;;;;3.46;91.07;100426.91;5011829;28;20289;-52
2024/02/01 09:40:24;;;;;;;15.27;10.70;;;;;;;3.44;91.24;100415.84;5003256;28;20262;-52
2024/02/01 09:42:52;;;;;;;13.27;10.30;;;;;;;3.49;91.08;100437.19;5009876;28;20208;-52
2024/02/01 09:45:20;;;;;;;15.43;11.20;;;;;;;3.44;91.92;100441.31;5010033;28;20746;-54
2024/02/01 09:47:49;;;;;;;14.23;9.77;;;;;;;3.44;92.23;100433.69;5010168;28;20215;-52
2024/02/01 09:50:20;;;;;;;13.17;10.73;;;;;;;3.48;91.73;100430.38;4997208;28;20200;-48
2024/02/01 09:52:51;;;;;;;14.40;9.97;;;;;;;3.46;92.03;100442.19;5003199;28;20662;-52
2024/02/01 09:55:20;;;;;;;15.23;11.13;;;;;;;3.47;92.13;100421.00;5008289;28;20252;-56
2024/02/01 09:57:49;;;;;;;14.27;10.40;;;;;;;3.48;92.33;100423.59;5004991;28;20203;-52
2024/02/01 10:00:22;;;;;;;14.07;10.17;;;;;;;3.51;93.18;100420.25;5009446;28;20231;-51
2024/02/01 10:02:53;;;;;;;16.03;10.67;;;;;;;3.48;93.04;100421.03;5009226;28;20238;-51
2024/02/01 10:05:23;;;;;;;16.00;11.07;;;;;;;3.49;93.80;100434.63;5008400;28;20246;-53
2024/02/01 10:07:54;;;;;;;17.10;11.47;;;;;;;3.52;94.61;100433.00;5011586;28;20756;-53
2024/02/01 10:10:22;;;;;;;15.90;11.47;;;;;;;3.54;94.72;100420.34;5011529;28;20203;-50
2024/02/01 10:12:58;;;;;;;15.13;10.77;;;;;;;3.55;94.09;100409.31;5007468;28;20208;-53
2024/02/01 10:15:30;;;;;;;15.03;11.10;;;;;;;3.53;94.13;100414.34;5002432;28;20242;-59
2024/02/01 10:17:59;;;;;;;16.13;11.83;;;;;;;3.51;94.83;100402.44;5008756;28;20322;-50
2024/02/01 10:20:35;;;;;;;18.97;11.80;;;;;;;3.49;95.10;100407.47;5013900;28;20261;-55
2024/02/01 10:23:06;;;;;;;19.37;12.20;;;;;;;3.48;95.55;100410.00;5013677;28;20222;-54
2024/02/01 10:25:38;;;;;;;14.63;10.53;;;;;;;3.53;95.78;100410.94;5013890;28;20239;-60
2024/02/01 10:28:08;;;;;;;13.83;10.03;;;;;;;3.54;96.26;100420.34;5009584;28;20219;-59
2024/02/01 10:30:39;;;;;;;15.17;10.27;;;;;;;3.55;96.30;100416.94;5010799;28;20219;-54
2024/02/01 10:33:09;;;;;;;13.10;9.67;;;;;;;3.56;96.21;100398.28;5009807;28;20250;-53
2024/02/01 10:35:38;;;;;;;12.83;9.80;;;;;;;3.59;96.16;100418.72;5009435;28;20636;-55
2024/02/01 10:38:15;;;;;;;13.50;10.07;;;;;;;3.61;95.68;100409.47;5005597;28;20203;-59
2024/02/01 10:40:58;;;;;;;13.43;9.83;;;;;;;3.64;96.50;100417.13;5011773;28;20656;-55
2024/02/01 10:43:28;;;;;;;12.90;9.30;;;;;;;3.63;95.95;100410.34;5009430;28;20662;-53
2024/02/01 10:46:07;;;;;;;11.93;9.87;;;;;;;3.64;96.24;100406.94;5009829;28;20204;-63
2024/02/01 10:48:42;;;;;;;14.57;10.20;;;;;;;3.67;96.19;100414.66;5010863;28;20617;-58
2024/02/01 10:51:14;;;;;;;14.20;10.13;;;;;;;3.67;95.77;100406.16;5004288;28;20210;-61
2024/02/01 10:53:46;;;;;;;13.10;9.73;;;;;;;3.69;96.38;100405.38;5012471;28;20674;-56
2024/02/01 10:56:15;;;;;;;12.73;9.93;;;;;;;3.64;95.26;100406.94;5009880;28;20202;-54
2024/02/01 10:58:48;;;;;;;15.27;11.00;;;;;;;3.66;96.39;100405.31;5009068;28;20238;-56
2024/02/01 11:01:19;;;;;;;14.03;10.23;;;;;;;3.68;96.39;100398.53;5007698;28;20684;-54
2024/02/01 11:03:51;;;;;;;14.17;11.27;;;;;;;3.67;96.17;100396.81;5013884;28;20302;-55
2024/02/01 11:06:20;;;;;;;14.20;9.60;;;;;;;3.70;96.76;100402.00;5007157;28;20234;-53
2024/02/01 11:08:52;;;;;;;12.80;9.73;;;;;;;3.73;96.40;100381.69;5005943;28;20207;-58
2024/02/01 11:11:21;;;;;;;13.97;9.43;;;;;;;3.74;96.48;100402.94;5010216;28;20286;-55
2024/02/01 11:14:07;;;;;;;13.87;9.83;;;;;;;3.78;97.03;100382.63;5007214;28;20204;-53
2024/02/01 11:16:38;;;;;;;11.37;9.30;;;;;;;3.79;96.02;100391.13;5006500;28;20239;-55
2024/02/01 11:19:11;;;;;;;12.03;9.87;;;;;;;3.81;96.76;100394.59;5012205;28;20609;-54
2024/02/01 11:21:47;;;;;;;13.10;9.67;;;;;;;3.74;96.57;100385.94;5008223;28;20986;-55
2024/02/01 11:24:19;;;;;;;12.33;9.93;;;;;;;3.76;96.64;100384.31;5008592;28;20195;-51
2024/02/01 11:26:47;;;;;;;13.00;9.67;;;;;;;3.77;97.38;100383.47;5013884;28;20820;-49
2024/02/01 11:29:21;;;;;;;12.57;9.37;;;;;;;3.78;97.24;100374.97;5007012;28;20211;-52
2024/02/01 11:31:54;;;;;;;13.00;10.03;;;;;;;3.78;96.88;100387.72;5006709;28;20217;-49
2024/02/01 11:34:24;;;;;;;14.57;10.57;;;;;;;3.79;97.18;100376.72;5006917;28;20203;-49
2024/02/01 11:36:53;;;;;;;14.03;10.57;;;;;;;3.84;97.01;100376.81;5011432;28;20254;-50
2024/02/01 11:39:23;;;;;;;12.87;10.10;;;;;;;3.91;96.77;100381.22;5012422;28;20199;-49
2024/02/01 11:41:53;;;;;;;12.23;10.07;;;;;;;4.00;96.90;100370.34;5011352;28;20200;-47
2024/02/01 11:44:23;;;;;;;13.20;9.77;;;;;;;4.09;96.77;100376.50;5012266;28;20556;-54
2024/02/01 11:46:53;;;;;;;13.40;9.47;;;;;;;4.21;96.59;100375.88;5008855;28;20203;-48
2024/02/01 11:49:23;;;;;;;13.07;9.63;;;;;;;4.29;96.25;100379.41;5005179;28;20200;-48
2024/02/01 11:52:13;;;;;;;13.80;9.70;;;;;;;4.31;93.91;100376.91;5009387;28;20203;-51
2024/02/01 11:54:46;;;;;;;11.23;9.00;;;;;;;4.33;93.68;100376.09;5010068;28;20199;-49
2024/02/01 11:57:17;;;;;;;11.70;9.00;;;;;;;4.37;93.19;100382.09;5012513;28;20214;-49
2024/02/01 11:59:45;;;;;;;11.60;7.73;;;;;;;4.31;91.93;100369.25;5002112;28;20211;-51
2024/02/01 12:02:15;;;;;;;10.70;8.53;;;;;;;4.31;92.74;100372.66;5009137;28;20209;-53
2024/02/01 12:04:45;;;;;;;10.03;8.57;;;;;;;4.31;91.46;100371.81;5006855;28;20674;-52
2024/02/01 12:07:16;;;;;;;13.57;9.70;;;;;;;4.38;91.66;100372.75;5012785;28;20227;-49
2024/02/01 12:09:48;;;;;;;9.87;7.93;;;;;;;4.47;90.56;100372.94;5011857;28;20982;-52
2024/02/01 12:12:18;;;;;;;9.87;7.40;;;;;;;4.49;89.83;100371.25;5010241;28;20205;-58